Kelso, North Dakota
Current Conditions -  °F | °C
As of 12:53 PM on Saturday 20 Dec 2014 (Local Time) from KFAR Reporting Station
Haze Haze  
Wind Chill: 23°   Ceiling: 700
Heat Index: 32°   Visibility: 5mi
Dew Point: 28°   Wind: 13mph
Humidity: 85%   Direction: 190°S
Pressure: 29.99"   Gusts: NA
Location:  47.3592°N, 97.0421°W
Report Text: KFAR 201853Z 19011KT 5SM BR OVC007 00/M02 A2999 RMK AO2 SLP168 T00001022
Loading
Personal Weather Stations






























Interactive Weather Map New forecast layout! Learn more

10-Day Weather Forecast

Advertisements
Track Severe Weather on mobile